sensor_id;sensor_type;location;lat;lon;timestamp;P1;durP1;ratioP1;P2;durP2;ratioP2
48550;SDS011;34397;51.176;6.738;2022-10-17T00:02:00;8.85;;;5.45;;
48550;SDS011;34397;51.176;6.738;2022-10-17T00:04:31;8.32;;;5.15;;
48550;SDS011;34397;51.176;6.738;2022-10-17T00:07:03;8.48;;;5.40;;
48550;SDS011;34397;51.176;6.738;2022-10-17T00:09:35;8.82;;;5.93;;
48550;SDS011;34397;51.176;6.738;2022-10-17T00:12:07;12.30;;;5.72;;
48550;SDS011;34397;51.176;6.738;2022-10-17T00:14:39;8.38;;;5.30;;
48550;SDS011;34397;51.176;6.738;2022-10-17T00:17:12;10.43;;;5.63;;
48550;SDS011;34397;51.176;6.738;2022-10-17T00:19:45;9.27;;;6.32;;
48550;SDS011;34397;51.176;6.738;2022-10-17T00:22:17;8.50;;;5.65;;
48550;SDS011;34397;51.176;6.738;2022-10-17T00:24:48;8.75;;;5.97;;
48550;SDS011;34397;51.176;6.738;2022-10-17T00:27:20;11.02;;;6.10;;
48550;SDS011;34397;51.176;6.738;2022-10-17T00:29:52;9.05;;;5.95;;
48550;SDS011;34397;51.176;6.738;2022-10-17T00:32:25;9.10;;;5.68;;
48550;SDS011;34397;51.176;6.738;2022-10-17T00:34:57;13.02;;;5.88;;
48550;SDS011;34397;51.176;6.738;2022-10-17T00:37:30;9.57;;;5.57;;
48550;SDS011;34397;51.176;6.738;2022-10-17T00:40:02;11.57;;;5.38;;
48550;SDS011;34397;51.176;6.738;2022-10-17T00:42:35;7.07;;;4.70;;
48550;SDS011;34397;51.176;6.738;2022-10-17T00:45:15;9.35;;;5.10;;
48550;SDS011;34397;51.176;6.738;2022-10-17T00:47:54;9.68;;;5.07;;
48550;SDS011;34397;51.176;6.738;2022-10-17T00:50:30;7.35;;;4.95;;
48550;SDS011;34397;51.176;6.738;2022-10-17T00:53:03;7.30;;;5.05;;
48550;SDS011;34397;51.176;6.738;2022-10-17T00:55:38;7.82;;;4.55;;
48550;SDS011;34397;51.176;6.738;2022-10-17T00:58:16;8.32;;;5.00;;
48550;SDS011;34397;51.176;6.738;2022-10-17T01:00:49;12.32;;;5.22;;
48550;SDS011;34397;51.176;6.738;2022-10-17T01:03:22;8.75;;;5.35;;
48550;SDS011;34397;51.176;6.738;2022-10-17T01:05:54;9.05;;;5.38;;
48550;SDS011;34397;51.176;6.738;2022-10-17T01:08:27;10.57;;;5.32;;
48550;SDS011;34397;51.176;6.738;2022-10-17T01:11:00;10.98;;;4.78;;
48550;SDS011;34397;51.176;6.738;2022-10-17T01:13:41;8.93;;;5.47;;
48550;SDS011;34397;51.176;6.738;2022-10-17T01:16:22;8.00;;;5.10;;
48550;SDS011;34397;51.176;6.738;2022-10-17T01:19:11;8.05;;;5.30;;
48550;SDS011;34397;51.176;6.738;2022-10-17T01:22:10;9.35;;;4.72;;
48550;SDS011;34397;51.176;6.738;2022-10-17T01:27:52;8.20;;;4.72;;
48550;SDS011;34397;51.176;6.738;2022-10-17T01:33:29;6.47;;;4.63;;
48550;SDS011;34397;51.176;6.738;2022-10-17T01:36:11;8.38;;;5.18;;
48550;SDS011;34397;51.176;6.738;2022-10-17T01:38:58;6.95;;;4.20;;
48550;SDS011;34397;51.176;6.738;2022-10-17T01:41:34;7.28;;;4.88;;
48550;SDS011;34397;51.176;6.738;2022-10-17T01:44:12;6.82;;;4.47;;
48550;SDS011;34397;51.176;6.738;2022-10-17T01:46:49;8.90;;;5.03;;
48550;SDS011;34397;51.176;6.738;2022-10-17T01:49:25;6.35;;;4.30;;
48550;SDS011;34397;51.176;6.738;2022-10-17T01:52:00;7.40;;;4.85;;
48550;SDS011;34397;51.176;6.738;2022-10-17T01:54:37;8.43;;;4.82;;
48550;SDS011;34397;51.176;6.738;2022-10-17T01:57:14;8.30;;;4.75;;
48550;SDS011;34397;51.176;6.738;2022-10-17T01:59:51;8.07;;;4.90;;
48550;SDS011;34397;51.176;6.738;2022-10-17T02:02:26;6.35;;;4.43;;
48550;SDS011;34397;51.176;6.738;2022-10-17T02:04:59;9.75;;;5.03;;
48550;SDS011;34397;51.176;6.738;2022-10-17T02:07:34;8.80;;;4.68;;
48550;SDS011;34397;51.176;6.738;2022-10-17T02:10:08;8.73;;;4.50;;
48550;SDS011;34397;51.176;6.738;2022-10-17T02:12:47;8.73;;;5.35;;
48550;SDS011;34397;51.176;6.738;2022-10-17T02:15:27;8.43;;;5.30;;
48550;SDS011;34397;51.176;6.738;2022-10-17T02:18:22;7.82;;;5.18;;
48550;SDS011;34397;51.176;6.738;2022-10-17T02:21:13;7.60;;;4.90;;
48550;SDS011;34397;51.176;6.738;2022-10-17T02:23:53;8.27;;;5.10;;
48550;SDS011;34397;51.176;6.738;2022-10-17T02:26:36;9.20;;;4.90;;
48550;SDS011;34397;51.176;6.738;2022-10-17T02:29:16;9.27;;;4.95;;
48550;SDS011;34397;51.176;6.738;2022-10-17T02:31:53;7.72;;;4.60;;
48550;SDS011;34397;51.176;6.738;2022-10-17T02:34:30;7.68;;;4.35;;
48550;SDS011;34397;51.176;6.738;2022-10-17T02:37:06;8.85;;;4.55;;
48550;SDS011;34397;51.176;6.738;2022-10-17T02:39:40;8.35;;;4.75;;
48550;SDS011;34397;51.176;6.738;2022-10-17T02:42:14;7.72;;;4.88;;
48550;SDS011;34397;51.176;6.738;2022-10-17T02:44:47;7.35;;;4.35;;
48550;SDS011;34397;51.176;6.738;2022-10-17T02:47:20;9.13;;;5.20;;
48550;SDS011;34397;51.176;6.738;2022-10-17T02:49:58;11.23;;;5.15;;
48550;SDS011;34397;51.176;6.738;2022-10-17T02:52:32;7.28;;;5.00;;
48550;SDS011;34397;51.176;6.738;2022-10-17T02:55:09;7.93;;;5.45;;
48550;SDS011;34397;51.176;6.738;2022-10-17T02:57:47;10.60;;;6.97;;
48550;SDS011;34397;51.176;6.738;2022-10-17T03:00:21;10.18;;;6.30;;
48550;SDS011;34397;51.176;6.738;2022-10-17T03:02:55;11.27;;;6.35;;
48550;SDS011;34397;51.176;6.738;2022-10-17T03:05:28;11.43;;;6.72;;
48550;SDS011;34397;51.176;6.738;2022-10-17T03:10:32;9.80;;;6.18;;
48550;SDS011;34397;51.176;6.738;2022-10-17T03:13:04;9.95;;;6.90;;
48550;SDS011;34397;51.176;6.738;2022-10-17T03:15:36;11.57;;;6.80;;
48550;SDS011;34397;51.176;6.738;2022-10-17T03:18:08;10.57;;;7.20;;
48550;SDS011;34397;51.176;6.738;2022-10-17T03:20:41;10.55;;;6.78;;
48550;SDS011;34397;51.176;6.738;2022-10-17T03:25:44;10.57;;;7.18;;
48550;SDS011;34397;51.176;6.738;2022-10-17T03:28:16;12.13;;;7.55;;
48550;SDS011;34397;51.176;6.738;2022-10-17T03:30:48;13.32;;;7.05;;
48550;SDS011;34397;51.176;6.738;2022-10-17T03:33:20;10.02;;;7.05;;
48550;SDS011;34397;51.176;6.738;2022-10-17T03:35:53;9.32;;;6.20;;
48550;SDS011;34397;51.176;6.738;2022-10-17T03:40:56;12.88;;;7.00;;
48550;SDS011;34397;51.176;6.738;2022-10-17T03:43:28;9.93;;;6.90;;
48550;SDS011;34397;51.176;6.738;2022-10-17T03:46:01;11.15;;;5.85;;
48550;SDS011;34397;51.176;6.738;2022-10-17T03:48:33;8.63;;;6.05;;
48550;SDS011;34397;51.176;6.738;2022-10-17T03:51:07;10.07;;;5.30;;
48550;SDS011;34397;51.176;6.738;2022-10-17T03:53:40;9.77;;;5.85;;
48550;SDS011;34397;51.176;6.738;2022-10-17T03:56:12;9.02;;;5.50;;
48550;SDS011;34397;51.176;6.738;2022-10-17T03:58:46;9.02;;;5.65;;
48550;SDS011;34397;51.176;6.738;2022-10-17T04:01:18;11.37;;;5.70;;
48550;SDS011;34397;51.176;6.738;2022-10-17T04:03:51;10.10;;;5.90;;
48550;SDS011;34397;51.176;6.738;2022-10-17T04:06:25;10.02;;;6.47;;
48550;SDS011;34397;51.176;6.738;2022-10-17T04:11:29;8.82;;;5.68;;
48550;SDS011;34397;51.176;6.738;2022-10-17T04:14:01;9.88;;;6.15;;
48550;SDS011;34397;51.176;6.738;2022-10-17T04:16:33;11.73;;;6.55;;
48550;SDS011;34397;51.176;6.738;2022-10-17T04:19:05;9.38;;;6.13;;
48550;SDS011;34397;51.176;6.738;2022-10-17T04:21:38;10.82;;;5.97;;
48550;SDS011;34397;51.176;6.738;2022-10-17T04:24:10;10.07;;;6.38;;
48550;SDS011;34397;51.176;6.738;2022-10-17T04:26:42;8.75;;;5.63;;
48550;SDS011;34397;51.176;6.738;2022-10-17T04:29:14;9.13;;;5.50;;
48550;SDS011;34397;51.176;6.738;2022-10-17T04:31:46;9.95;;;6.22;;
48550;SDS011;34397;51.176;6.738;2022-10-17T04:34:18;10.70;;;6.47;;
48550;SDS011;34397;51.176;6.738;2022-10-17T04:36:52;10.68;;;5.78;;
48550;SDS011;34397;51.176;6.738;2022-10-17T04:39:24;9.68;;;5.70;;
48550;SDS011;34397;51.176;6.738;2022-10-17T04:41:56;8.73;;;5.45;;
48550;SDS011;34397;51.176;6.738;2022-10-17T04:44:28;8.57;;;4.97;;
48550;SDS011;34397;51.176;6.738;2022-10-17T04:47:02;10.23;;;5.28;;
48550;SDS011;34397;51.176;6.738;2022-10-17T04:49:34;8.73;;;5.18;;
48550;SDS011;34397;51.176;6.738;2022-10-17T04:52:07;9.68;;;5.65;;
48550;SDS011;34397;51.176;6.738;2022-10-17T04:57:10;9.48;;;5.80;;
48550;SDS011;34397;51.176;6.738;2022-10-17T04:59:42;9.60;;;6.20;;
48550;SDS011;34397;51.176;6.738;2022-10-17T05:02:14;9.65;;;5.97;;
48550;SDS011;34397;51.176;6.738;2022-10-17T05:04:46;13.90;;;6.82;;
48550;SDS011;34397;51.176;6.738;2022-10-17T05:07:19;8.40;;;5.60;;
48550;SDS011;34397;51.176;6.738;2022-10-17T05:12:23;15.48;;;6.40;;
48550;SDS011;34397;51.176;6.738;2022-10-17T05:14:55;10.00;;;6.40;;
48550;SDS011;34397;51.176;6.738;2022-10-17T05:17:26;9.55;;;6.57;;
48550;SDS011;34397;51.176;6.738;2022-10-17T05:19:58;11.50;;;6.60;;
48550;SDS011;34397;51.176;6.738;2022-10-17T05:22:31;11.60;;;6.15;;
48550;SDS011;34397;51.176;6.738;2022-10-17T05:25:04;11.60;;;6.25;;
48550;SDS011;34397;51.176;6.738;2022-10-17T05:27:37;8.93;;;5.88;;
48550;SDS011;34397;51.176;6.738;2022-10-17T05:30:09;10.00;;;6.57;;
48550;SDS011;34397;51.176;6.738;2022-10-17T05:32:41;11.43;;;7.07;;
48550;SDS011;34397;51.176;6.738;2022-10-17T05:35:13;9.05;;;5.93;;
48550;SDS011;34397;51.176;6.738;2022-10-17T05:37:46;10.35;;;6.32;;
48550;SDS011;34397;51.176;6.738;2022-10-17T05:40:19;11.95;;;6.30;;
48550;SDS011;34397;51.176;6.738;2022-10-17T05:42:50;9.40;;;6.07;;
48550;SDS011;34397;51.176;6.738;2022-10-17T05:45:22;11.43;;;5.90;;
48550;SDS011;34397;51.176;6.738;2022-10-17T05:47:54;11.02;;;6.05;;
48550;SDS011;34397;51.176;6.738;2022-10-17T05:50:27;11.35;;;6.78;;
48550;SDS011;34397;51.176;6.738;2022-10-17T05:53:00;11.88;;;6.85;;
48550;SDS011;34397;51.176;6.738;2022-10-17T05:55:32;9.90;;;5.68;;
48550;SDS011;34397;51.176;6.738;2022-10-17T05:58:03;8.50;;;5.78;;
48550;SDS011;34397;51.176;6.738;2022-10-17T06:00:35;9.95;;;5.82;;
48550;SDS011;34397;51.176;6.738;2022-10-17T06:03:07;7.22;;;4.88;;
48550;SDS011;34397;51.176;6.738;2022-10-17T06:05:41;9.38;;;5.22;;
48550;SDS011;34397;51.176;6.738;2022-10-17T06:08:14;8.07;;;4.28;;
48550;SDS011;34397;51.176;6.738;2022-10-17T06:10:47;8.43;;;5.15;;
48550;SDS011;34397;51.176;6.738;2022-10-17T06:13:19;8.10;;;4.93;;
48550;SDS011;34397;51.176;6.738;2022-10-17T06:15:51;8.60;;;4.82;;
48550;SDS011;34397;51.176;6.738;2022-10-17T06:18:23;8.90;;;4.70;;
48550;SDS011;34397;51.176;6.738;2022-10-17T06:21:00;8.55;;;4.63;;
48550;SDS011;34397;51.176;6.738;2022-10-17T06:23:34;7.93;;;4.55;;
48550;SDS011;34397;51.176;6.738;2022-10-17T06:26:06;9.25;;;4.75;;
48550;SDS011;34397;51.176;6.738;2022-10-17T06:28:39;7.70;;;4.77;;
48550;SDS011;34397;51.176;6.738;2022-10-17T06:31:11;9.35;;;5.05;;
48550;SDS011;34397;51.176;6.738;2022-10-17T06:33:46;9.73;;;5.03;;
48550;SDS011;34397;51.176;6.738;2022-10-17T06:36:18;13.07;;;5.57;;
48550;SDS011;34397;51.176;6.738;2022-10-17T06:38:51;11.35;;;5.88;;
48550;SDS011;34397;51.176;6.738;2022-10-17T06:41:23;14.98;;;6.38;;
48550;SDS011;34397;51.176;6.738;2022-10-17T06:43:55;11.75;;;6.03;;
48550;SDS011;34397;51.176;6.738;2022-10-17T06:46:27;14.18;;;6.22;;
48550;SDS011;34397;51.176;6.738;2022-10-17T06:48:59;10.55;;;5.63;;
48550;SDS011;34397;51.176;6.738;2022-10-17T06:51:33;14.63;;;5.90;;
48550;SDS011;34397;51.176;6.738;2022-10-17T06:54:07;9.90;;;5.68;;
48550;SDS011;34397;51.176;6.738;2022-10-17T06:56:39;13.38;;;6.55;;
48550;SDS011;34397;51.176;6.738;2022-10-17T06:59:11;10.80;;;5.60;;
48550;SDS011;34397;51.176;6.738;2022-10-17T07:01:44;10.73;;;5.50;;
48550;SDS011;34397;51.176;6.738;2022-10-17T07:04:16;10.52;;;6.25;;
48550;SDS011;34397;51.176;6.738;2022-10-17T07:06:48;14.50;;;6.30;;
48550;SDS011;34397;51.176;6.738;2022-10-17T07:09:21;10.35;;;5.20;;
48550;SDS011;34397;51.176;6.738;2022-10-17T07:11:54;11.40;;;4.70;;
48550;SDS011;34397;51.176;6.738;2022-10-17T07:14:25;11.85;;;4.85;;
48550;SDS011;34397;51.176;6.738;2022-10-17T07:17:01;10.82;;;5.25;;
48550;SDS011;34397;51.176;6.738;2022-10-17T07:19:33;9.88;;;4.50;;
48550;SDS011;34397;51.176;6.738;2022-10-17T07:22:05;8.80;;;5.10;;
48550;SDS011;34397;51.176;6.738;2022-10-17T07:24:38;10.38;;;5.18;;
48550;SDS011;34397;51.176;6.738;2022-10-17T07:29:42;9.47;;;5.80;;
48550;SDS011;34397;51.176;6.738;2022-10-17T07:32:14;8.50;;;5.40;;
48550;SDS011;34397;51.176;6.738;2022-10-17T07:34:46;9.35;;;5.50;;
48550;SDS011;34397;51.176;6.738;2022-10-17T07:37:18;10.20;;;5.53;;
48550;SDS011;34397;51.176;6.738;2022-10-17T07:39:51;11.43;;;6.10;;
48550;SDS011;34397;51.176;6.738;2022-10-17T07:42:23;10.30;;;5.55;;
48550;SDS011;34397;51.176;6.738;2022-10-17T07:44:56;11.20;;;5.85;;
48550;SDS011;34397;51.176;6.738;2022-10-17T07:47:28;9.75;;;5.47;;
48550;SDS011;34397;51.176;6.738;2022-10-17T07:50:04;16.95;;;5.10;;
48550;SDS011;34397;51.176;6.738;2022-10-17T07:55:10;12.57;;;5.43;;
48550;SDS011;34397;51.176;6.738;2022-10-17T07:57:42;11.38;;;4.93;;
48550;SDS011;34397;51.176;6.738;2022-10-17T08:00:14;9.05;;;5.22;;
48550;SDS011;34397;51.176;6.738;2022-10-17T08:02:46;11.18;;;5.90;;
48550;SDS011;34397;51.176;6.738;2022-10-17T08:05:17;9.60;;;5.93;;
48550;SDS011;34397;51.176;6.738;2022-10-17T08:07:49;7.75;;;4.53;;
48550;SDS011;34397;51.176;6.738;2022-10-17T08:10:23;8.27;;;4.45;;
48550;SDS011;34397;51.176;6.738;2022-10-17T08:12:56;12.32;;;5.00;;
48550;SDS011;34397;51.176;6.738;2022-10-17T08:15:28;10.55;;;4.70;;
48550;SDS011;34397;51.176;6.738;2022-10-17T08:18:00;12.63;;;4.88;;
48550;SDS011;34397;51.176;6.738;2022-10-17T08:20:32;9.00;;;4.60;;
48550;SDS011;34397;51.176;6.738;2022-10-17T08:23:04;8.57;;;4.47;;
48550;SDS011;34397;51.176;6.738;2022-10-17T08:25:38;7.25;;;4.18;;
48550;SDS011;34397;51.176;6.738;2022-10-17T08:28:09;7.07;;;4.32;;
48550;SDS011;34397;51.176;6.738;2022-10-17T08:30:41;9.93;;;5.05;;
48550;SDS011;34397;51.176;6.738;2022-10-17T08:33:13;8.05;;;4.45;;
48550;SDS011;34397;51.176;6.738;2022-10-17T08:35:45;9.95;;;4.75;;
48550;SDS011;34397;51.176;6.738;2022-10-17T08:38:17;10.57;;;4.65;;
48550;SDS011;34397;51.176;6.738;2022-10-17T08:40:50;7.07;;;4.30;;
48550;SDS011;34397;51.176;6.738;2022-10-17T08:43:27;8.93;;;4.82;;
48550;SDS011;34397;51.176;6.738;2022-10-17T08:46:16;8.10;;;4.47;;
48550;SDS011;34397;51.176;6.738;2022-10-17T08:48:49;14.20;;;4.25;;
48550;SDS011;34397;51.176;6.738;2022-10-17T08:51:23;9.23;;;4.30;;
48550;SDS011;34397;51.176;6.738;2022-10-17T08:54:00;6.97;;;4.10;;
48550;SDS011;34397;51.176;6.738;2022-10-17T08:56:44;6.40;;;4.18;;
48550;SDS011;34397;51.176;6.738;2022-10-17T08:59:20;6.55;;;3.75;;
48550;SDS011;34397;51.176;6.738;2022-10-17T09:02:00;7.28;;;3.45;;
48550;SDS011;34397;51.176;6.738;2022-10-17T09:04:56;6.70;;;3.80;;
48550;SDS011;34397;51.176;6.738;2022-10-17T09:08:01;8.50;;;3.75;;
48550;SDS011;34397;51.176;6.738;2022-10-17T09:10:46;8.60;;;3.70;;
48550;SDS011;34397;51.176;6.738;2022-10-17T09:13:31;8.20;;;4.57;;
48550;SDS011;34397;51.176;6.738;2022-10-17T09:16:24;6.45;;;3.60;;
48550;SDS011;34397;51.176;6.738;2022-10-17T09:19:14;7.00;;;3.78;;
48550;SDS011;34397;51.176;6.738;2022-10-17T09:21:52;6.88;;;3.60;;
48550;SDS011;34397;51.176;6.738;2022-10-17T09:24:32;6.90;;;3.67;;
48550;SDS011;34397;51.176;6.738;2022-10-17T09:27:14;6.82;;;3.80;;
48550;SDS011;34397;51.176;6.738;2022-10-17T09:30:00;9.10;;;3.38;;
48550;SDS011;34397;51.176;6.738;2022-10-17T09:32:49;7.55;;;3.28;;
48550;SDS011;34397;51.176;6.738;2022-10-17T09:35:22;9.38;;;4.25;;
48550;SDS011;34397;51.176;6.738;2022-10-17T09:37:54;8.70;;;3.60;;
48550;SDS011;34397;51.176;6.738;2022-10-17T09:40:27;8.27;;;3.97;;
48550;SDS011;34397;51.176;6.738;2022-10-17T09:43:04;5.88;;;3.58;;
48550;SDS011;34397;51.176;6.738;2022-10-17T09:45:40;5.93;;;3.60;;
48550;SDS011;34397;51.176;6.738;2022-10-17T09:48:22;5.90;;;3.45;;
48550;SDS011;34397;51.176;6.738;2022-10-17T09:50:58;6.38;;;3.75;;
48550;SDS011;34397;51.176;6.738;2022-10-17T09:53:32;6.65;;;4.10;;
48550;SDS011;34397;51.176;6.738;2022-10-17T09:56:07;6.93;;;3.70;;
48550;SDS011;34397;51.176;6.738;2022-10-17T09:58:45;8.82;;;3.80;;
48550;SDS011;34397;51.176;6.738;2022-10-17T10:01:21;8.70;;;3.67;;
48550;SDS011;34397;51.176;6.738;2022-10-17T10:04:08;8.20;;;3.85;;
48550;SDS011;34397;51.176;6.738;2022-10-17T10:09:33;6.72;;;3.80;;
48550;SDS011;34397;51.176;6.738;2022-10-17T10:12:15;7.30;;;4.38;;
48550;SDS011;34397;51.176;6.738;2022-10-17T10:14:50;9.13;;;3.83;;
48550;SDS011;34397;51.176;6.738;2022-10-17T10:20:24;8.98;;;3.65;;
48550;SDS011;34397;51.176;6.738;2022-10-17T10:23:08;6.45;;;3.45;;
48550;SDS011;34397;51.176;6.738;2022-10-17T10:25:48;8.05;;;3.80;;
48550;SDS011;34397;51.176;6.738;2022-10-17T10:28:26;6.30;;;3.72;;
48550;SDS011;34397;51.176;6.738;2022-10-17T10:31:02;6.05;;;3.67;;
48550;SDS011;34397;51.176;6.738;2022-10-17T10:33:41;6.85;;;4.15;;
48550;SDS011;34397;51.176;6.738;2022-10-17T10:36:14;6.32;;;3.95;;
48550;SDS011;34397;51.176;6.738;2022-10-17T10:38:49;6.85;;;4.03;;
48550;SDS011;34397;51.176;6.738;2022-10-17T10:41:24;11.60;;;4.00;;
48550;SDS011;34397;51.176;6.738;2022-10-17T10:43:56;6.95;;;3.92;;
48550;SDS011;34397;51.176;6.738;2022-10-17T10:46:28;7.82;;;3.78;;
48550;SDS011;34397;51.176;6.738;2022-10-17T10:49:02;7.60;;;3.70;;
48550;SDS011;34397;51.176;6.738;2022-10-17T10:51:37;11.57;;;3.92;;
48550;SDS011;34397;51.176;6.738;2022-10-17T10:56:55;7.88;;;3.60;;
48550;SDS011;34397;51.176;6.738;2022-10-17T10:59:34;7.40;;;3.85;;
48550;SDS011;34397;51.176;6.738;2022-10-17T11:02:11;6.25;;;3.47;;
48550;SDS011;34397;51.176;6.738;2022-10-17T11:04:51;7.32;;;4.10;;
48550;SDS011;34397;51.176;6.738;2022-10-17T11:07:29;10.73;;;4.32;;
48550;SDS011;34397;51.176;6.738;2022-10-17T11:10:07;9.23;;;3.95;;
48550;SDS011;34397;51.176;6.738;2022-10-17T11:12:48;9.52;;;4.28;;
48550;SDS011;34397;51.176;6.738;2022-10-17T11:15:26;9.23;;;4.43;;
48550;SDS011;34397;51.176;6.738;2022-10-17T11:18:05;8.02;;;4.15;;
48550;SDS011;34397;51.176;6.738;2022-10-17T11:20:47;7.43;;;4.45;;
48550;SDS011;34397;51.176;6.738;2022-10-17T11:23:26;7.40;;;4.18;;
48550;SDS011;34397;51.176;6.738;2022-10-17T11:26:06;9.77;;;4.40;;
48550;SDS011;34397;51.176;6.738;2022-10-17T11:28:43;10.35;;;4.30;;
48550;SDS011;34397;51.176;6.738;2022-10-17T11:31:15;8.43;;;4.32;;
48550;SDS011;34397;51.176;6.738;2022-10-17T11:33:49;7.40;;;4.35;;
48550;SDS011;34397;51.176;6.738;2022-10-17T11:36:28;7.43;;;4.72;;
48550;SDS011;34397;51.176;6.738;2022-10-17T11:39:06;7.70;;;4.17;;
48550;SDS011;34397;51.176;6.738;2022-10-17T11:41:48;9.40;;;4.72;;
48550;SDS011;34397;51.176;6.738;2022-10-17T11:44:26;10.68;;;4.53;;
48550;SDS011;34397;51.176;6.738;2022-10-17T11:47:05;8.25;;;4.65;;
48550;SDS011;34397;51.176;6.738;2022-10-17T11:49:48;8.90;;;4.40;;
48550;SDS011;34397;51.176;6.738;2022-10-17T11:52:29;8.13;;;4.80;;
48550;SDS011;34397;51.176;6.738;2022-10-17T11:55:10;6.22;;;4.35;;
48550;SDS011;34397;51.176;6.738;2022-10-17T11:57:57;7.35;;;4.07;;
48550;SDS011;34397;51.176;6.738;2022-10-17T12:00:47;7.65;;;4.40;;
48550;SDS011;34397;51.176;6.738;2022-10-17T12:03:39;6.30;;;3.95;;
48550;SDS011;34397;51.176;6.738;2022-10-17T12:06:26;7.53;;;4.30;;
48550;SDS011;34397;51.176;6.738;2022-10-17T12:09:15;6.45;;;3.78;;
48550;SDS011;34397;51.176;6.738;2022-10-17T12:11:55;7.30;;;4.25;;
48550;SDS011;34397;51.176;6.738;2022-10-17T12:14:39;9.93;;;4.38;;
48550;SDS011;34397;51.176;6.738;2022-10-17T12:17:21;8.27;;;4.32;;
48550;SDS011;34397;51.176;6.738;2022-10-17T12:23:22;8.43;;;4.13;;
48550;SDS011;34397;51.176;6.738;2022-10-17T12:25:59;6.85;;;3.97;;
48550;SDS011;34397;51.176;6.738;2022-10-17T12:28:39;8.23;;;4.95;;
48550;SDS011;34397;51.176;6.738;2022-10-17T12:31:20;8.90;;;4.65;;
48550;SDS011;34397;51.176;6.738;2022-10-17T12:33:55;7.70;;;4.32;;
48550;SDS011;34397;51.176;6.738;2022-10-17T12:42:29;8.73;;;4.47;;
48550;SDS011;34397;51.176;6.738;2022-10-17T12:45:43;16.15;;;4.78;;
48550;SDS011;34397;51.176;6.738;2022-10-17T12:54:59;9.18;;;4.50;;
48550;SDS011;34397;51.176;6.738;2022-10-17T12:57:46;7.35;;;4.40;;
48550;SDS011;34397;51.176;6.738;2022-10-17T13:00:26;9.93;;;4.40;;
48550;SDS011;34397;51.176;6.738;2022-10-17T13:03:05;8.65;;;4.43;;
48550;SDS011;34397;51.176;6.738;2022-10-17T13:05:50;8.35;;;4.07;;
48550;SDS011;34397;51.176;6.738;2022-10-17T13:08:26;8.15;;;4.18;;
48550;SDS011;34397;51.176;6.738;2022-10-17T13:11:01;9.63;;;3.97;;
48550;SDS011;34397;51.176;6.738;2022-10-17T13:13:36;7.47;;;3.85;;
48550;SDS011;34397;51.176;6.738;2022-10-17T13:16:26;8.38;;;3.90;;
48550;SDS011;34397;51.176;6.738;2022-10-17T13:18:59;6.75;;;3.70;;
48550;SDS011;34397;51.176;6.738;2022-10-17T13:21:35;7.75;;;3.38;;
48550;SDS011;34397;51.176;6.738;2022-10-17T13:24:18;7.00;;;3.63;;
48550;SDS011;34397;51.176;6.738;2022-10-17T13:26:51;6.97;;;3.92;;
48550;SDS011;34397;51.176;6.738;2022-10-17T13:29:25;7.72;;;4.13;;
48550;SDS011;34397;51.176;6.738;2022-10-17T13:32:01;6.72;;;3.38;;
48550;SDS011;34397;51.176;6.738;2022-10-17T13:34:35;8.77;;;3.58;;
48550;SDS011;34397;51.176;6.738;2022-10-17T13:37:09;5.63;;;3.37;;
48550;SDS011;34397;51.176;6.738;2022-10-17T13:39:46;8.18;;;3.30;;
48550;SDS011;34397;51.176;6.738;2022-10-17T13:42:26;6.05;;;3.08;;
48550;SDS011;34397;51.176;6.738;2022-10-17T13:45:04;7.70;;;3.30;;
48550;SDS011;34397;51.176;6.738;2022-10-17T13:47:48;6.55;;;2.95;;
48550;SDS011;34397;51.176;6.738;2022-10-17T13:50:22;5.37;;;2.80;;
48550;SDS011;34397;51.176;6.738;2022-10-17T13:53:13;6.35;;;2.83;;
48550;SDS011;34397;51.176;6.738;2022-10-17T13:55:49;7.43;;;2.95;;
48550;SDS011;34397;51.176;6.738;2022-10-17T13:58:29;5.32;;;2.90;;
48550;SDS011;34397;51.176;6.738;2022-10-17T14:01:06;6.25;;;2.70;;
48550;SDS011;34397;51.176;6.738;2022-10-17T14:03:39;6.10;;;2.60;;
48550;SDS011;34397;51.176;6.738;2022-10-17T14:08:50;6.72;;;2.60;;
48550;SDS011;34397;51.176;6.738;2022-10-17T14:11:31;6.10;;;2.65;;
48550;SDS011;34397;51.176;6.738;2022-10-17T14:14:13;7.53;;;2.90;;
48550;SDS011;34397;51.176;6.738;2022-10-17T14:16:49;7.97;;;3.15;;
48550;SDS011;34397;51.176;6.738;2022-10-17T14:19:23;6.55;;;2.78;;
48550;SDS011;34397;51.176;6.738;2022-10-17T14:22:13;4.90;;;2.33;;
48550;SDS011;34397;51.176;6.738;2022-10-17T14:24:48;8.57;;;3.20;;
48550;SDS011;34397;51.176;6.738;2022-10-17T14:27:23;5.45;;;2.50;;
48550;SDS011;34397;51.176;6.738;2022-10-17T14:30:00;5.60;;;3.00;;
48550;SDS011;34397;51.176;6.738;2022-10-17T14:32:37;5.97;;;2.88;;
48550;SDS011;34397;51.176;6.738;2022-10-17T14:35:14;5.75;;;2.55;;
48550;SDS011;34397;51.176;6.738;2022-10-17T14:37:48;8.50;;;3.33;;
48550;SDS011;34397;51.176;6.738;2022-10-17T14:40:24;14.18;;;3.40;;
48550;SDS011;34397;51.176;6.738;2022-10-17T14:42:59;9.07;;;3.85;;
48550;SDS011;34397;51.176;6.738;2022-10-17T14:45:36;7.63;;;3.00;;
48550;SDS011;34397;51.176;6.738;2022-10-17T14:48:11;5.20;;;2.70;;
48550;SDS011;34397;51.176;6.738;2022-10-17T14:53:38;5.63;;;2.95;;
48550;SDS011;34397;51.176;6.738;2022-10-17T14:56:21;5.15;;;2.40;;
48550;SDS011;34397;51.176;6.738;2022-10-17T14:58:55;5.30;;;2.40;;
48550;SDS011;34397;51.176;6.738;2022-10-17T15:01:27;8.90;;;3.10;;
48550;SDS011;34397;51.176;6.738;2022-10-17T15:04:00;5.90;;;2.63;;
48550;SDS011;34397;51.176;6.738;2022-10-17T15:06:32;5.32;;;2.53;;
48550;SDS011;34397;51.176;6.738;2022-10-17T15:09:05;7.05;;;3.00;;
48550;SDS011;34397;51.176;6.738;2022-10-17T15:11:37;7.15;;;2.70;;
48550;SDS011;34397;51.176;6.738;2022-10-17T15:14:11;5.43;;;3.20;;
48550;SDS011;34397;51.176;6.738;2022-10-17T15:16:43;8.20;;;3.10;;
48550;SDS011;34397;51.176;6.738;2022-10-17T15:19:17;7.97;;;2.78;;
48550;SDS011;34397;51.176;6.738;2022-10-17T15:21:48;6.80;;;3.10;;
48550;SDS011;34397;51.176;6.738;2022-10-17T15:24:20;8.68;;;3.38;;
48550;SDS011;34397;51.176;6.738;2022-10-17T15:26:52;8.23;;;3.22;;
48550;SDS011;34397;51.176;6.738;2022-10-17T15:29:25;5.80;;;3.30;;
48550;SDS011;34397;51.176;6.738;2022-10-17T15:31:59;7.05;;;3.15;;
48550;SDS011;34397;51.176;6.738;2022-10-17T15:34:32;7.78;;;3.35;;
48550;SDS011;34397;51.176;6.738;2022-10-17T15:37:04;7.70;;;3.40;;
48550;SDS011;34397;51.176;6.738;2022-10-17T15:39:37;7.80;;;3.25;;
48550;SDS011;34397;51.176;6.738;2022-10-17T15:42:09;8.55;;;3.85;;
48550;SDS011;34397;51.176;6.738;2022-10-17T15:47:21;6.57;;;3.13;;
48550;SDS011;34397;51.176;6.738;2022-10-17T15:49:57;7.45;;;3.65;;
48550;SDS011;34397;51.176;6.738;2022-10-17T15:52:30;8.27;;;3.80;;
48550;SDS011;34397;51.176;6.738;2022-10-17T15:55:05;6.65;;;3.10;;
48550;SDS011;34397;51.176;6.738;2022-10-17T15:57:53;5.82;;;3.20;;
48550;SDS011;34397;51.176;6.738;2022-10-17T16:00:25;7.55;;;3.70;;
48550;SDS011;34397;51.176;6.738;2022-10-17T16:02:56;7.20;;;3.42;;
48550;SDS011;34397;51.176;6.738;2022-10-17T16:05:30;6.25;;;3.70;;
48550;SDS011;34397;51.176;6.738;2022-10-17T16:08:03;6.28;;;3.65;;
48550;SDS011;34397;51.176;6.738;2022-10-17T16:10:38;9.13;;;4.32;;
48550;SDS011;34397;51.176;6.738;2022-10-17T16:13:11;8.60;;;3.80;;
48550;SDS011;34397;51.176;6.738;2022-10-17T16:15:48;9.05;;;3.53;;
48550;SDS011;34397;51.176;6.738;2022-10-17T16:18:20;7.65;;;4.18;;
48550;SDS011;34397;51.176;6.738;2022-10-17T16:20:54;8.45;;;4.22;;
48550;SDS011;34397;51.176;6.738;2022-10-17T16:23:29;7.80;;;4.22;;
48550;SDS011;34397;51.176;6.738;2022-10-17T16:26:01;8.00;;;4.22;;
48550;SDS011;34397;51.176;6.738;2022-10-17T16:28:33;7.43;;;3.83;;
48550;SDS011;34397;51.176;6.738;2022-10-17T16:31:17;9.13;;;3.97;;
48550;SDS011;34397;51.176;6.738;2022-10-17T16:33:54;7.10;;;4.03;;
48550;SDS011;34397;51.176;6.738;2022-10-17T16:36:36;7.40;;;3.65;;